ANA879 RJTT-YSSY
Flight info
| Callsign | ANA879 |
|---|---|
| Flight time | N/A |
| Altitude | 33000 |
| Route | VAMOS XAC B586 SABRI/N0494F340 B586 CADDY/N0496F330 B586 UKATA 2444N14151E 2313N14211E/N0492F350 2100N14239E 1856N14305E 1401N14405E 1041N14440E 0459N14532E DCT PIKOK B586 NZ/N0488F370 B586 PY DCT 1200S14728E 1329S14737E 1913S14842E DCT OVRON B462 MK H652 BOREE |
| Aircraft | B77W/H-SDE1E2E3FGHIJ2J3J4J5M1RWXY/LB1D1 |
Departure
| Time | N/A |
|---|---|
| Airport | Tokyo Haneda International Airport (RJTT) |
Arrival
| Time | 2026-04-30 13:03 |
|---|---|
| Airport | Sydney Kingsford Smith International Airport (YSSY) |
| Time | Latitude | Longitude | Altitude | Speed | Heading |
|---|---|---|---|---|---|
| 2026-04-30 12:34 | -32.24368 | 150.86730 | 31895 ft | 432 kts | 173° |
| 2026-04-30 12:34 | -32.27324 | 150.87245 | 31427 ft | 428 kts | 172° |
| 2026-04-30 12:34 | -32.30260 | 150.87759 | 30965 ft | 424 kts | 172° |
| 2026-04-30 12:34 | -32.33167 | 150.88267 | 30504 ft | 421 kts | 172° |
| 2026-04-30 12:35 | -32.36052 | 150.88772 | 29978 ft | 418 kts | 172° |
| 2026-04-30 12:35 | -32.38919 | 150.89274 | 29468 ft | 414 kts | 172° |
| 2026-04-30 12:35 | -32.41753 | 150.89771 | 29003 ft | 410 kts | 172° |
| 2026-04-30 12:35 | -32.44564 | 150.90264 | 28521 ft | 407 kts | 172° |
| 2026-04-30 12:36 | -32.47354 | 150.90753 | 28069 ft | 404 kts | 172° |
| 2026-04-30 12:36 | -32.50125 | 150.91239 | 27612 ft | 401 kts | 172° |
| 2026-04-30 12:36 | -32.52873 | 150.91727 | 27160 ft | 398 kts | 171° |
| 2026-04-30 12:36 | -32.55570 | 150.92212 | 26717 ft | 396 kts | 171° |
| 2026-04-30 12:37 | -32.58315 | 150.92706 | 26275 ft | 393 kts | 171° |
| 2026-04-30 12:37 | -32.60985 | 150.93188 | 25835 ft | 392 kts | 171° |
| 2026-04-30 12:37 | -32.63674 | 150.93672 | 25393 ft | 390 kts | 171° |
| 2026-04-30 12:37 | -32.66354 | 150.94155 | 24958 ft | 389 kts | 171° |
| 2026-04-30 12:38 | -32.69028 | 150.94637 | 24512 ft | 388 kts | 171° |
| 2026-04-30 12:38 | -32.71692 | 150.95117 | 24058 ft | 387 kts | 171° |
| 2026-04-30 12:38 | -32.74357 | 150.95598 | 23556 ft | 386 kts | 171° |
| 2026-04-30 12:38 | -32.77007 | 150.96076 | 23090 ft | 384 kts | 171° |
| 2026-04-30 12:39 | -32.79645 | 150.96551 | 22643 ft | 382 kts | 171° |
| 2026-04-30 12:39 | -32.82272 | 150.97019 | 22203 ft | 380 kts | 171° |
| 2026-04-30 12:39 | -32.84881 | 150.97481 | 21768 ft | 378 kts | 171° |
| 2026-04-30 12:39 | -32.87475 | 150.97940 | 21336 ft | 376 kts | 171° |
| 2026-04-30 12:40 | -32.90059 | 150.98398 | 20905 ft | 375 kts | 171° |
| 2026-04-30 12:40 | -32.92633 | 150.98855 | 20476 ft | 373 kts | 171° |
| 2026-04-30 12:40 | -32.95168 | 150.99306 | 20055 ft | 372 kts | 171° |
| 2026-04-30 12:40 | -32.97761 | 150.99767 | 19619 ft | 372 kts | 171° |
| 2026-04-30 12:41 | -33.00321 | 151.00223 | 19178 ft | 371 kts | 171° |
| 2026-04-30 12:41 | -33.02873 | 151.00678 | 18744 ft | 371 kts | 171° |
| 2026-04-30 12:41 | -33.05428 | 151.01133 | 18249 ft | 371 kts | 171° |
| 2026-04-30 12:41 | -33.07976 | 151.01588 | 17786 ft | 369 kts | 171° |
| 2026-04-30 12:42 | -33.10484 | 151.02036 | 17343 ft | 368 kts | 171° |
| 2026-04-30 12:42 | -33.13011 | 151.02487 | 16906 ft | 367 kts | 171° |
| 2026-04-30 12:42 | -33.15527 | 151.02937 | 16472 ft | 365 kts | 171° |
| 2026-04-30 12:42 | -33.18041 | 151.03386 | 16037 ft | 364 kts | 171° |
| 2026-04-30 12:43 | -33.20543 | 151.03834 | 15610 ft | 363 kts | 171° |
| 2026-04-30 12:43 | -33.23045 | 151.04282 | 15179 ft | 363 kts | 171° |
| 2026-04-30 12:43 | -33.25537 | 151.04740 | 14750 ft | 362 kts | 171° |
| 2026-04-30 12:43 | -33.28030 | 151.05218 | 14315 ft | 362 kts | 171° |
| 2026-04-30 12:44 | -33.30519 | 151.05699 | 13836 ft | 362 kts | 171° |
| 2026-04-30 12:44 | -33.33001 | 151.06176 | 13377 ft | 361 kts | 171° |
| 2026-04-30 12:44 | -33.35477 | 151.06651 | 12941 ft | 359 kts | 170° |
| 2026-04-30 12:44 | -33.37939 | 151.07122 | 12506 ft | 358 kts | 170° |
| 2026-04-30 12:45 | -33.40365 | 151.07587 | 12086 ft | 356 kts | 170° |
| 2026-04-30 12:45 | -33.42810 | 151.08056 | 11655 ft | 355 kts | 170° |
| 2026-04-30 12:45 | -33.45248 | 151.08525 | 11241 ft | 354 kts | 170° |
| 2026-04-30 12:45 | -33.47671 | 151.08991 | 10904 ft | 350 kts | 170° |
| 2026-04-30 12:46 | -33.50060 | 151.09450 | 10685 ft | 341 kts | 170° |
| 2026-04-30 12:46 | -33.52357 | 151.09891 | 10605 ft | 328 kts | 170° |
| 2026-04-30 12:46 | -33.54573 | 151.10318 | 10522 ft | 316 kts | 170° |
| 2026-04-30 12:46 | -33.56708 | 151.10729 | 10445 ft | 305 kts | 169° |
| 2026-04-30 12:47 | -33.58767 | 151.11126 | 10330 ft | 295 kts | 169° |
| 2026-04-30 12:47 | -33.60768 | 151.11512 | 10194 ft | 287 kts | 169° |
| 2026-04-30 12:47 | -33.62724 | 151.11893 | 9937 ft | 283 kts | 169° |
| 2026-04-30 12:47 | -33.64660 | 151.12277 | 9605 ft | 282 kts | 169° |
| 2026-04-30 12:48 | -33.66593 | 151.12660 | 9295 ft | 280 kts | 169° |
| 2026-04-30 12:48 | -33.68489 | 151.13034 | 9053 ft | 276 kts | 169° |
| 2026-04-30 12:48 | -33.70382 | 151.13408 | 8746 ft | 276 kts | 169° |
| 2026-04-30 12:48 | -33.72273 | 151.13776 | 8429 ft | 275 kts | 169° |
| 2026-04-30 12:49 | -33.74159 | 151.14141 | 8140 ft | 273 kts | 169° |
| 2026-04-30 12:49 | -33.76034 | 151.14503 | 7858 ft | 272 kts | 169° |
| 2026-04-30 12:49 | -33.77894 | 151.14864 | 7587 ft | 269 kts | 169° |
| 2026-04-30 12:49 | -33.79726 | 151.15219 | 7410 ft | 264 kts | 169° |
| 2026-04-30 12:50 | -33.81535 | 151.15416 | 7238 ft | 262 kts | 184° |
| 2026-04-30 12:50 | -33.83340 | 151.15020 | 7118 ft | 271 kts | 192° |
| 2026-04-30 12:50 | -33.85177 | 151.14444 | 6954 ft | 274 kts | 193° |
| 2026-04-30 12:50 | -33.87015 | 151.13856 | 6778 ft | 272 kts | 193° |
| 2026-04-30 12:51 | -33.88842 | 151.13292 | 6601 ft | 270 kts | 192° |
| 2026-04-30 12:51 | -33.90658 | 151.12751 | 6431 ft | 267 kts | 192° |
| 2026-04-30 12:51 | -33.92457 | 151.12227 | 6287 ft | 264 kts | 192° |
| 2026-04-30 12:51 | -33.94231 | 151.11713 | 6199 ft | 262 kts | 192° |
| 2026-04-30 12:52 | -33.96022 | 151.11197 | 6070 ft | 267 kts | 192° |
| 2026-04-30 12:52 | -33.97840 | 151.10672 | 5927 ft | 270 kts | 192° |
| 2026-04-30 12:52 | -33.99663 | 151.10145 | 5769 ft | 269 kts | 192° |
| 2026-04-30 12:52 | -34.01480 | 151.09620 | 5624 ft | 268 kts | 192° |
| 2026-04-30 12:53 | -34.03292 | 151.09095 | 5464 ft | 267 kts | 192° |
| 2026-04-30 12:53 | -34.05102 | 151.08572 | 5313 ft | 267 kts | 192° |
| 2026-04-30 12:53 | -34.06903 | 151.08051 | 5162 ft | 266 kts | 192° |
| 2026-04-30 12:53 | -34.08693 | 151.07852 | 4972 ft | 255 kts | 168° |
| 2026-04-30 12:54 | -34.10429 | 151.08342 | 4876 ft | 261 kts | 165° |
| 2026-04-30 12:54 | -34.12200 | 151.08819 | 4727 ft | 266 kts | 166° |
| 2026-04-30 12:54 | -34.14005 | 151.09285 | 4568 ft | 264 kts | 166° |
| 2026-04-30 12:54 | -34.15796 | 151.09748 | 4410 ft | 262 kts | 166° |
| 2026-04-30 12:55 | -34.17573 | 151.10207 | 4257 ft | 260 kts | 166° |
| 2026-04-30 12:55 | -34.19333 | 151.10664 | 4113 ft | 257 kts | 166° |
| 2026-04-30 12:55 | -34.20955 | 151.11451 | 3949 ft | 251 kts | 139° |
| 2026-04-30 12:55 | -34.22005 | 151.13102 | 3832 ft | 251 kts | 108° |
| 2026-04-30 12:56 | -34.22190 | 151.15158 | 3697 ft | 247 kts | 79° |
| 2026-04-30 12:56 | -34.21793 | 151.17161 | 3567 ft | 246 kts | 72° |
| 2026-04-30 12:56 | -34.21107 | 151.19042 | 3417 ft | 245 kts | 56° |
| 2026-04-30 12:56 | -34.20030 | 151.20604 | 3392 ft | 239 kts | 42° |
| 2026-04-30 12:57 | -34.18650 | 151.21675 | 3183 ft | 234 kts | 24° |
| 2026-04-30 12:57 | -34.17126 | 151.22193 | 3090 ft | 221 kts | 10° |
| 2026-04-30 12:57 | -34.15691 | 151.22354 | 2998 ft | 193 kts | 3° |
| 2026-04-30 12:57 | -34.14436 | 151.22326 | 3004 ft | 170 kts | 358° |
| 2026-04-30 12:58 | -34.13311 | 151.22210 | 2988 ft | 154 kts | 357° |
| 2026-04-30 12:58 | -34.12290 | 151.22085 | 3013 ft | 146 kts | 355° |
| 2026-04-30 12:58 | -34.11259 | 151.21890 | 2957 ft | 152 kts | 352° |
| 2026-04-30 12:58 | -34.10210 | 151.21645 | 2759 ft | 153 kts | 351° |
| 2026-04-30 12:59 | -34.09198 | 151.21390 | 2554 ft | 148 kts | 351° |
| 2026-04-30 12:59 | -34.08204 | 151.21134 | 2355 ft | 145 kts | 351° |
| 2026-04-30 12:59 | -34.07216 | 151.20877 | 2171 ft | 145 kts | 351° |
| 2026-04-30 12:59 | -34.06226 | 151.20619 | 1986 ft | 146 kts | 351° |
| 2026-04-30 13:00 | -34.05240 | 151.20361 | 1784 ft | 145 kts | 351° |
| 2026-04-30 13:00 | -34.04251 | 151.20104 | 1594 ft | 145 kts | 351° |
| 2026-04-30 13:00 | -34.03265 | 151.19847 | 1404 ft | 144 kts | 350° |
| 2026-04-30 13:00 | -34.02283 | 151.19590 | 1210 ft | 145 kts | 350° |
| 2026-04-30 13:01 | -34.01294 | 151.19332 | 1014 ft | 145 kts | 350° |
| 2026-04-30 13:01 | -34.00309 | 151.19075 | 822 ft | 145 kts | 349° |
| 2026-04-30 13:01 | -33.99329 | 151.18820 | 640 ft | 147 kts | 348° |
| 2026-04-30 13:01 | -33.98330 | 151.18560 | 433 ft | 149 kts | 347° |
| 2026-04-30 13:02 | -33.97313 | 151.18291 | 249 ft | 148 kts | 345° |
| 2026-04-30 13:02 | -33.96299 | 151.18032 | 63 ft | 150 kts | 347° |
| 2026-04-30 13:02 | -33.95329 | 151.17778 | 28 ft | 131 kts | 347° |
| 2026-04-30 13:02 | -33.94561 | 151.17574 | 28 ft | 95 kts | 348° |
| 2026-04-30 13:03 | -33.94036 | 151.17441 | 26 ft | 59 kts | 348° |
| 2026-04-30 13:03 | -33.93823 | 151.17385 | 26 ft | 25 kts | 348° |
| 2026-04-30 13:03 | -33.93643 | 151.17338 | 23 ft | 27 kts | 348° |
| 2026-04-30 13:03 | -33.93526 | 151.17334 | 25 ft | 15 kts | 25° |
| 2026-04-30 13:04 | -33.93481 | 151.17422 | 23 ft | 11 kts | 71° |
| 2026-04-30 13:04 | -33.93464 | 151.17507 | 24 ft | 11 kts | 81° |
| 2026-04-30 13:04 | -33.93452 | 151.17566 | 28 ft | 6 kts | 56° |
| 2026-04-30 13:04 | -33.93411 | 151.17583 | 29 ft | 6 kts | 7° |
| 2026-04-30 13:05 | -33.93382 | 151.17587 | 32 ft | 6 kts | 9° |
| 2026-04-30 13:05 | -33.93337 | 151.17587 | 35 ft | 7 kts | 352° |
| 2026-04-30 13:05 | -33.93281 | 151.17578 | 35 ft | 9 kts | 353° |
| 2026-04-30 13:06 | -33.93269 | 151.17576 | 35 ft | 0 kts | 348° |
| 2026-04-30 13:06 | -33.93262 | 151.17571 | 35 ft | 5 kts | 335° |
| 2026-04-30 13:06 | -33.93218 | 151.17574 | 35 ft | 1 kts | 37° |
| 2026-04-30 13:07 | -33.93209 | 151.17595 | 35 ft | 5 kts | 64° |
| 2026-04-30 13:07 | -33.93202 | 151.17617 | 35 ft | 1 kts | 71° |
| 2026-04-30 13:07 | -33.93201 | 151.17619 | 35 ft | 0 kts | 71° |